createdAt,value
2022-10-12T00:00:24.778Z,11.98
2022-10-12T00:05:30.125Z,11.93
2022-10-12T00:10:37.275Z,11.92
2022-10-12T00:15:43.688Z,11.85
2022-10-12T00:20:49.127Z,11.82
2022-10-12T00:25:54.511Z,11.76
2022-10-12T00:31:00.525Z,11.78
2022-10-12T00:36:17.547Z,11.75
2022-10-12T00:41:26.144Z,11.73
2022-10-12T00:46:43.695Z,11.68
2022-10-12T00:52:00.468Z,11.65
2022-10-12T00:57:08.684Z,11.58
2022-10-12T01:02:15.227Z,11.53
2022-10-12T01:07:20.676Z,11.52
2022-10-12T01:12:27.668Z,11.56
2022-10-12T01:17:58.600Z,11.57
2022-10-12T01:23:29.231Z,11.57
2022-10-12T01:28:52.783Z,11.60
2022-10-12T01:34:01.230Z,11.62
2022-10-12T01:39:15.541Z,11.66
2022-10-12T01:44:24.195Z,11.70
2022-10-12T01:49:32.641Z,11.68
2022-10-12T01:54:46.562Z,11.76
2022-10-12T01:59:55.060Z,11.85
2022-10-12T02:05:06.118Z,11.85
2022-10-12T02:10:17.436Z,11.87
2022-10-12T02:15:26.067Z,11.90
2022-10-12T02:20:34.090Z,11.93
2022-10-12T02:25:41.523Z,11.90
2022-10-12T02:30:58.882Z,11.96
2022-10-12T02:36:28.319Z,11.96
2022-10-12T02:41:36.744Z,12.01
2022-10-12T02:46:44.230Z,12.03
2022-10-12T02:51:50.392Z,12.02
2022-10-12T02:56:55.848Z,12.08
2022-10-12T03:02:01.379Z,12.20
2022-10-12T03:07:06.846Z,12.20
2022-10-12T03:12:12.311Z,12.23
2022-10-12T03:17:17.766Z,12.27
2022-10-12T03:22:23.234Z,12.32
2022-10-12T03:27:28.754Z,12.36
2022-10-12T03:32:34.549Z,12.37
2022-10-12T03:37:40.316Z,12.39
2022-10-12T03:42:46.337Z,12.43
2022-10-12T03:47:51.744Z,12.51
2022-10-12T03:52:57.303Z,12.52
2022-10-12T03:58:03.865Z,12.51
2022-10-12T04:03:11.121Z,12.52
2022-10-12T04:08:17.447Z,12.58
2022-10-12T04:13:23.828Z,12.60
2022-10-12T04:18:29.351Z,12.58
2022-10-12T04:23:36.305Z,12.59
2022-10-12T04:28:41.792Z,12.68
2022-10-12T04:33:47.848Z,12.70
2022-10-12T04:38:58.440Z,12.67
2022-10-12T04:44:01.388Z,12.66
2022-10-12T04:49:06.926Z,12.61
2022-10-12T04:54:13.025Z,12.63
2022-10-12T04:59:18.562Z,12.66
2022-10-12T05:04:24.202Z,12.70
2022-10-12T05:09:29.749Z,12.74
2022-10-12T05:14:36.407Z,12.71
2022-10-12T05:19:41.861Z,12.69
2022-10-12T05:24:52.751Z,12.75
2022-10-12T05:29:54.621Z,12.79
2022-10-12T05:35:00.171Z,12.80
2022-10-12T05:40:06.271Z,12.80
2022-10-12T05:45:13.294Z,12.79
2022-10-12T05:50:18.892Z,12.75
2022-10-12T05:55:24.339Z,12.77
2022-10-12T06:00:29.806Z,12.80
2022-10-12T06:05:35.274Z,12.79
2022-10-12T06:10:46.549Z,12.78
2022-10-12T06:15:51.972Z,12.87
2022-10-12T06:21:28.499Z,12.90
2022-10-12T06:26:05.036Z,12.95
2022-10-12T06:31:11.353Z,13.01
2022-10-12T06:36:17.135Z,13.13
2022-10-12T06:41:23.545Z,13.11
2022-10-12T06:46:29.338Z,13.14
2022-10-12T06:51:34.860Z,13.18
2022-10-12T06:56:40.554Z,13.25
2022-10-12T07:01:46.113Z,13.31
2022-10-12T07:06:51.771Z,13.39
2022-10-12T07:11:57.221Z,13.44
2022-10-12T07:17:02.671Z,13.47
2022-10-12T07:22:09.439Z,13.55
2022-10-12T07:27:15.029Z,13.62
2022-10-12T07:32:20.812Z,13.67
2022-10-12T07:37:26.411Z,13.73
2022-10-12T07:42:31.862Z,13.80
2022-10-12T07:47:37.707Z,13.92
2022-10-12T07:52:43.509Z,13.99
2022-10-12T07:57:49.071Z,14.03
2022-10-12T08:02:54.512Z,13.97
2022-10-12T08:08:00.386Z,13.94
2022-10-12T08:13:06.530Z,14.06
2022-10-12T08:18:11.957Z,14.15
2022-10-12T08:23:17.403Z,14.21
2022-10-12T08:28:23.936Z,14.30
2022-10-12T08:33:31.013Z,14.25
2022-10-12T08:38:39.375Z,14.36
2022-10-12T08:43:47.800Z,14.46
2022-10-12T08:49:05.440Z,14.54
2022-10-12T08:54:13.869Z,14.65
2022-10-12T08:59:20.596Z,14.57
2022-10-12T09:04:40.692Z,14.69
2022-10-12T09:10:11.785Z,14.79
2022-10-12T09:15:20.208Z,14.97
2022-10-12T09:20:31.466Z,15.13
2022-10-12T09:25:37.153Z,15.15
2022-10-12T09:30:45.587Z,15.19
2022-10-12T09:35:51.745Z,15.25
2022-10-12T09:40:57.258Z,15.34
2022-10-12T09:46:04.878Z,15.43
2022-10-12T09:51:12.054Z,15.48
2022-10-12T09:56:40.243Z,15.47
2022-10-12T10:01:48.717Z,15.54
2022-10-12T10:06:54.583Z,15.61
2022-10-12T10:12:15.019Z,15.69
2022-10-12T10:17:29.587Z,15.74
2022-10-12T10:22:35.118Z,15.87
2022-10-12T10:27:41.652Z,16.01
2022-10-12T10:32:48.646Z,16.17
2022-10-12T10:37:57.365Z,16.24
2022-10-12T10:43:09.634Z,16.34
2022-10-12T10:48:20.878Z,16.32
2022-10-12T10:53:28.416Z,16.36
2022-10-12T10:58:45.837Z,16.45
2022-10-12T11:03:54.365Z,16.44
2022-10-12T11:09:03.966Z,16.51
2022-10-12T11:14:21.834Z,16.68
2022-10-12T11:19:54.990Z,16.70
2022-10-12T11:25:03.583Z,16.67
2022-10-12T11:30:12.233Z,16.62
2022-10-12T11:35:29.690Z,16.66
2022-10-12T11:41:02.409Z,16.72
2022-10-12T11:45:50.864Z,16.68
2022-10-12T11:51:03.910Z,16.62
2022-10-12T11:56:15.225Z,16.76
2022-10-12T12:01:42.600Z,16.79
2022-10-12T12:07:02.258Z,16.84
2022-10-12T12:12:22.907Z,17.26
2022-10-12T12:17:32.338Z,17.44
2022-10-12T12:22:56.177Z,17.60
2022-10-12T12:28:10.292Z,17.60
2022-10-12T12:33:25.093Z,17.70
2022-10-12T12:38:48.201Z,17.79
2022-10-12T12:43:57.093Z,17.71
2022-10-12T12:49:03.621Z,17.74
2022-10-12T12:54:18.047Z,17.80
2022-10-12T12:59:32.402Z,18.02
2022-10-12T13:04:45.816Z,18.13
2022-10-12T13:10:00.801Z,18.14
2022-10-12T13:15:36.783Z,18.11
2022-10-12T13:20:44.654Z,18.13
2022-10-12T13:25:56.942Z,18.24
2022-10-12T13:31:03.581Z,18.25
2022-10-12T13:36:30.725Z,18.13
2022-10-12T13:41:37.127Z,18.12
2022-10-12T13:46:48.346Z,18.15
2022-10-12T13:51:57.027Z,18.15
2022-10-12T14:02:20.793Z,18.02
2022-10-12T14:07:35.493Z,18.01
2022-10-12T14:12:42.430Z,17.98
2022-10-12T14:17:51.785Z,17.95
2022-10-12T14:22:59.375Z,17.97
2022-10-12T14:28:07.756Z,17.95
2022-10-12T14:33:32.617Z,17.86
2022-10-12T14:38:46.972Z,17.82
2022-10-12T14:44:17.623Z,17.71
2022-10-12T14:49:28.992Z,17.67
2022-10-12T14:54:34.581Z,17.47
2022-10-12T14:59:40.189Z,17.43
2022-10-12T15:04:46.377Z,17.45
2022-10-12T15:09:53.199Z,17.35
2022-10-12T15:15:01.267Z,17.28
2022-10-12T15:20:07.578Z,17.25
2022-10-12T15:25:23.143Z,17.20
2022-10-12T15:30:28.942Z,17.16
2022-10-12T15:35:36.923Z,17.13
2022-10-12T15:40:46.192Z,17.12
2022-10-12T15:45:51.835Z,17.10
2022-10-12T15:50:57.440Z,17.05
2022-10-12T15:56:02.865Z,16.96
2022-10-12T16:01:08.486Z,16.86
2022-10-12T16:06:15.119Z,16.79
2022-10-12T16:11:21.345Z,16.69
2022-10-12T16:16:26.856Z,16.60
2022-10-12T16:21:32.298Z,16.50
2022-10-12T16:26:42.654Z,16.41
2022-10-12T16:31:45.068Z,16.34
2022-10-12T16:36:50.587Z,16.24
2022-10-12T16:41:56.785Z,16.13
2022-10-12T16:47:02.411Z,16.01
2022-10-12T16:52:08.572Z,15.86
2022-10-12T16:57:14.463Z,15.73
2022-10-12T17:02:22.355Z,15.54
2022-10-12T17:07:27.804Z,15.40
2022-10-12T17:12:33.195Z,15.23
2022-10-12T17:17:38.625Z,15.09
2022-10-12T17:22:44.406Z,14.96
2022-10-12T17:27:49.878Z,14.80
2022-10-12T17:32:55.342Z,14.67
2022-10-12T17:38:00.861Z,14.56
2022-10-12T17:43:06.378Z,14.46
2022-10-12T17:48:13.533Z,14.35
2022-10-12T17:53:19.215Z,14.23
2022-10-12T17:58:24.929Z,14.13
2022-10-12T18:03:30.597Z,14.96
2022-10-12T18:08:37.046Z,14.29
2022-10-12T18:13:44.106Z,14.10
2022-10-12T18:18:51.562Z,13.94
2022-10-12T18:23:58.024Z,13.81
2022-10-12T18:29:03.609Z,13.72
2022-10-12T18:34:09.209Z,13.65
2022-10-12T18:39:15.426Z,13.58
2022-10-12T18:44:21.439Z,13.57
2022-10-12T18:49:26.895Z,13.50
2022-10-12T18:54:32.338Z,13.46
2022-10-12T18:59:38.951Z,13.41
2022-10-12T19:04:44.570Z,13.35
2022-10-12T19:09:50.082Z,13.30
2022-10-12T19:14:55.535Z,13.28
2022-10-12T19:20:02.995Z,13.26
2022-10-12T19:25:09.563Z,13.25
2022-10-12T19:30:15.762Z,13.22
2022-10-12T19:35:23.594Z,13.18
2022-10-12T19:40:31.097Z,13.15
2022-10-12T19:45:41.517Z,13.13
2022-10-12T19:50:47.372Z,13.09
2022-10-12T19:55:53.104Z,13.06
2022-10-12T20:01:11.968Z,13.05
2022-10-12T20:06:28.666Z,13.01
2022-10-12T20:11:35.867Z,13.02
2022-10-12T20:16:41.416Z,13.00
2022-10-12T20:21:46.859Z,12.98
2022-10-12T20:26:52.454Z,12.99
2022-10-12T20:31:57.830Z,12.96
2022-10-12T20:37:03.221Z,12.99
2022-10-12T20:42:08.787Z,12.95
2022-10-12T20:47:21.520Z,12.93
2022-10-12T20:52:27.306Z,12.98
2022-10-12T20:57:33.097Z,12.89
2022-10-12T21:02:38.815Z,12.88
2022-10-12T21:07:44.342Z,12.83
2022-10-12T21:12:49.789Z,12.78
2022-10-12T21:17:55.234Z,12.79
2022-10-12T21:23:00.726Z,12.78
2022-10-12T21:28:06.313Z,12.76
2022-10-12T21:33:11.854Z,12.72
2022-10-12T21:38:18.311Z,12.71
2022-10-12T21:43:23.812Z,12.66
2022-10-12T21:48:29.256Z,12.64
2022-10-12T21:53:36.495Z,12.61
2022-10-12T21:58:42.008Z,12.60
2022-10-12T22:03:48.458Z,12.57
2022-10-12T22:08:57.199Z,12.54
2022-10-12T22:14:05.529Z,12.49
2022-10-12T22:19:14.477Z,12.48
2022-10-12T22:24:20.798Z,12.46
2022-10-12T22:29:26.245Z,12.40
2022-10-12T22:34:31.841Z,12.40
2022-10-12T22:39:37.295Z,12.38
2022-10-12T22:44:42.805Z,12.30
2022-10-12T22:49:48.268Z,12.27
2022-10-12T22:54:53.911Z,12.23
2022-10-12T22:59:59.683Z,12.21
2022-10-12T23:05:07.540Z,12.15
2022-10-12T23:10:13.073Z,12.12
2022-10-12T23:15:18.709Z,12.06
2022-10-12T23:20:24.448Z,12.04
2022-10-12T23:25:31.023Z,11.99
2022-10-12T23:30:40.743Z,11.91
2022-10-12T23:35:46.262Z,11.86
2022-10-12T23:40:52.016Z,11.83
2022-10-12T23:45:57.627Z,11.76
2022-10-12T23:51:03.145Z,11.77
2022-10-12T23:56:08.953Z,11.73
